sensor_id;sensor_type;location;lat;lon;timestamp;temperature;humidity
54518;DHT22;40423;53.176;6.002;2023-04-30T00:00:56;8.50;99.90
54518;DHT22;40423;53.176;6.002;2023-04-30T00:03:21;8.40;99.90
54518;DHT22;40423;53.176;6.002;2023-04-30T00:05:52;8.40;99.90
54518;DHT22;40423;53.176;6.002;2023-04-30T00:08:17;8.40;99.90
54518;DHT22;40423;53.176;6.002;2023-04-30T00:10:43;8.30;99.90
54518;DHT22;40423;53.176;6.002;2023-04-30T00:13:09;8.30;99.90
54518;DHT22;40423;53.176;6.002;2023-04-30T00:15:38;8.30;99.90
54518;DHT22;40423;53.176;6.002;2023-04-30T00:18:04;8.20;99.90
54518;DHT22;40423;53.176;6.002;2023-04-30T00:20:31;8.20;99.90
54518;DHT22;40423;53.176;6.002;2023-04-30T00:22:59;8.20;99.90
54518;DHT22;40423;53.176;6.002;2023-04-30T00:25:25;8.10;99.90
54518;DHT22;40423;53.176;6.002;2023-04-30T00:27:51;8.10;99.90
54518;DHT22;40423;53.176;6.002;2023-04-30T00:30:19;8.10;99.90
54518;DHT22;40423;53.176;6.002;2023-04-30T00:32:45;8.00;99.90
54518;DHT22;40423;53.176;6.002;2023-04-30T00:35:11;8.00;99.90
54518;DHT22;40423;53.176;6.002;2023-04-30T00:37:37;8.00;99.90
54518;DHT22;40423;53.176;6.002;2023-04-30T00:40:03;8.00;99.90
54518;DHT22;40423;53.176;6.002;2023-04-30T00:42:29;8.00;99.90
54518;DHT22;40423;53.176;6.002;2023-04-30T00:44:54;8.00;99.90
54518;DHT22;40423;53.176;6.002;2023-04-30T00:47:20;7.90;99.90
54518;DHT22;40423;53.176;6.002;2023-04-30T00:49:46;7.90;99.90
54518;DHT22;40423;53.176;6.002;2023-04-30T00:52:13;7.90;99.90
54518;DHT22;40423;53.176;6.002;2023-04-30T00:54:39;7.90;99.90
54518;DHT22;40423;53.176;6.002;2023-04-30T00:57:06;7.90;99.90
54518;DHT22;40423;53.176;6.002;2023-04-30T00:59:34;7.80;99.90
54518;DHT22;40423;53.176;6.002;2023-04-30T01:02:02;7.70;99.90
54518;DHT22;40423;53.176;6.002;2023-04-30T01:04:29;7.70;99.90
54518;DHT22;40423;53.176;6.002;2023-04-30T01:06:55;7.60;99.90
54518;DHT22;40423;53.176;6.002;2023-04-30T01:09:21;7.60;99.90
54518;DHT22;40423;53.176;6.002;2023-04-30T01:17:22;7.80;99.90
54518;DHT22;40423;53.176;6.002;2023-04-30T01:19:52;7.80;99.90
54518;DHT22;40423;53.176;6.002;2023-04-30T01:22:23;7.90;99.90
54518;DHT22;40423;53.176;6.002;2023-04-30T01:25:17;7.90;99.90
54518;DHT22;40423;53.176;6.002;2023-04-30T01:28:02;7.90;99.90
54518;DHT22;40423;53.176;6.002;2023-04-30T01:30:33;7.90;99.90
54518;DHT22;40423;53.176;6.002;2023-04-30T01:32:59;7.80;99.90
54518;DHT22;40423;53.176;6.002;2023-04-30T01:41:53;7.80;99.90
54518;DHT22;40423;53.176;6.002;2023-04-30T01:52:45;8.00;99.90
54518;DHT22;40423;53.176;6.002;2023-04-30T01:57:58;8.20;99.90
54518;DHT22;40423;53.176;6.002;2023-04-30T02:00:26;8.30;99.90
54518;DHT22;40423;53.176;6.002;2023-04-30T02:02:52;8.30;99.90
54518;DHT22;40423;53.176;6.002;2023-04-30T02:05:18;8.30;99.90
54518;DHT22;40423;53.176;6.002;2023-04-30T02:07:46;8.30;99.90
54518;DHT22;40423;53.176;6.002;2023-04-30T02:10:13;8.40;99.90
54518;DHT22;40423;53.176;6.002;2023-04-30T02:12:39;8.30;99.90
54518;DHT22;40423;53.176;6.002;2023-04-30T02:15:06;8.40;99.90
54518;DHT22;40423;53.176;6.002;2023-04-30T02:17:35;8.30;99.90
54518;DHT22;40423;53.176;6.002;2023-04-30T02:20:00;8.40;99.90
54518;DHT22;40423;53.176;6.002;2023-04-30T02:22:26;8.30;99.90
54518;DHT22;40423;53.176;6.002;2023-04-30T02:24:52;8.30;99.90
54518;DHT22;40423;53.176;6.002;2023-04-30T02:27:21;8.20;99.90
54518;DHT22;40423;53.176;6.002;2023-04-30T02:29:50;8.20;99.90
54518;DHT22;40423;53.176;6.002;2023-04-30T02:32:19;8.20;99.90
54518;DHT22;40423;53.176;6.002;2023-04-30T02:34:45;8.20;99.90
54518;DHT22;40423;53.176;6.002;2023-04-30T02:37:11;8.20;99.90
54518;DHT22;40423;53.176;6.002;2023-04-30T02:39:39;8.20;99.90
54518;DHT22;40423;53.176;6.002;2023-04-30T02:42:06;8.20;99.90
54518;DHT22;40423;53.176;6.002;2023-04-30T02:44:33;7.80;99.90
54518;DHT22;40423;53.176;6.002;2023-04-30T02:47:05;8.30;99.90
54518;DHT22;40423;53.176;6.002;2023-04-30T02:49:30;8.30;99.90
54518;DHT22;40423;53.176;6.002;2023-04-30T02:51:56;8.30;99.90
54518;DHT22;40423;53.176;6.002;2023-04-30T02:54:22;8.30;99.90
54518;DHT22;40423;53.176;6.002;2023-04-30T02:56:48;8.20;99.90
54518;DHT22;40423;53.176;6.002;2023-04-30T02:59:13;8.30;99.90
54518;DHT22;40423;53.176;6.002;2023-04-30T03:01:39;8.30;99.90
54518;DHT22;40423;53.176;6.002;2023-04-30T03:04:05;8.30;99.90
54518;DHT22;40423;53.176;6.002;2023-04-30T03:06:31;8.30;99.90
54518;DHT22;40423;53.176;6.002;2023-04-30T03:08:58;8.30;99.90
54518;DHT22;40423;53.176;6.002;2023-04-30T03:11:23;8.30;99.90
54518;DHT22;40423;53.176;6.002;2023-04-30T03:13:49;8.30;99.90
54518;DHT22;40423;53.176;6.002;2023-04-30T03:16:16;8.20;99.90
54518;DHT22;40423;53.176;6.002;2023-04-30T03:18:47;8.20;99.90
54518;DHT22;40423;53.176;6.002;2023-04-30T03:21:13;8.20;99.90
54518;DHT22;40423;53.176;6.002;2023-04-30T03:23:39;8.20;99.90
54518;DHT22;40423;53.176;6.002;2023-04-30T03:26:05;8.20;99.90
54518;DHT22;40423;53.176;6.002;2023-04-30T03:28:31;8.20;99.90
54518;DHT22;40423;53.176;6.002;2023-04-30T03:30:57;8.20;99.90
54518;DHT22;40423;53.176;6.002;2023-04-30T03:33:24;8.10;99.90
54518;DHT22;40423;53.176;6.002;2023-04-30T03:35:49;8.10;99.90
54518;DHT22;40423;53.176;6.002;2023-04-30T03:38:16;8.00;99.90
54518;DHT22;40423;53.176;6.002;2023-04-30T03:40:42;8.00;99.90
54518;DHT22;40423;53.176;6.002;2023-04-30T03:43:08;8.00;99.90
54518;DHT22;40423;53.176;6.002;2023-04-30T03:45:33;8.00;99.90
54518;DHT22;40423;53.176;6.002;2023-04-30T03:47:59;8.00;99.90
54518;DHT22;40423;53.176;6.002;2023-04-30T03:50:25;7.90;99.90
54518;DHT22;40423;53.176;6.002;2023-04-30T03:52:51;7.90;99.90
54518;DHT22;40423;53.176;6.002;2023-04-30T03:55:16;7.90;99.90
54518;DHT22;40423;53.176;6.002;2023-04-30T03:57:43;7.90;99.90
54518;DHT22;40423;53.176;6.002;2023-04-30T04:00:12;7.80;99.90
54518;DHT22;40423;53.176;6.002;2023-04-30T04:02:38;7.80;99.90
54518;DHT22;40423;53.176;6.002;2023-04-30T04:05:07;7.70;99.90
54518;DHT22;40423;53.176;6.002;2023-04-30T04:07:36;7.70;99.90
54518;DHT22;40423;53.176;6.002;2023-04-30T04:10:01;7.60;99.90
54518;DHT22;40423;53.176;6.002;2023-04-30T04:12:27;7.60;99.90
54518;DHT22;40423;53.176;6.002;2023-04-30T04:14:53;7.60;99.90
54518;DHT22;40423;53.176;6.002;2023-04-30T04:17:19;7.50;99.90
54518;DHT22;40423;53.176;6.002;2023-04-30T04:19:44;7.50;99.90
54518;DHT22;40423;53.176;6.002;2023-04-30T04:22:10;7.60;99.90
54518;DHT22;40423;53.176;6.002;2023-04-30T04:24:36;7.50;99.90
54518;DHT22;40423;53.176;6.002;2023-04-30T04:27:02;7.50;99.90
54518;DHT22;40423;53.176;6.002;2023-04-30T04:29:28;7.40;99.90
54518;DHT22;40423;53.176;6.002;2023-04-30T04:31:54;7.50;99.90
54518;DHT22;40423;53.176;6.002;2023-04-30T04:34:20;7.50;99.90
54518;DHT22;40423;53.176;6.002;2023-04-30T04:36:47;7.30;99.90
54518;DHT22;40423;53.176;6.002;2023-04-30T04:39:12;7.50;99.90
54518;DHT22;40423;53.176;6.002;2023-04-30T04:41:39;7.50;99.90
54518;DHT22;40423;53.176;6.002;2023-04-30T04:44:05;7.50;99.90
54518;DHT22;40423;53.176;6.002;2023-04-30T04:46:34;7.50;99.90
54518;DHT22;40423;53.176;6.002;2023-04-30T04:49:02;7.60;99.90
54518;DHT22;40423;53.176;6.002;2023-04-30T04:51:28;7.50;99.90
54518;DHT22;40423;53.176;6.002;2023-04-30T04:53:54;7.50;99.90
54518;DHT22;40423;53.176;6.002;2023-04-30T04:56:20;7.50;99.90
54518;DHT22;40423;53.176;6.002;2023-04-30T04:58:46;7.50;99.90
54518;DHT22;40423;53.176;6.002;2023-04-30T05:01:12;7.50;99.90
54518;DHT22;40423;53.176;6.002;2023-04-30T05:03:40;7.40;99.90
54518;DHT22;40423;53.176;6.002;2023-04-30T05:06:06;7.40;99.90
54518;DHT22;40423;53.176;6.002;2023-04-30T05:08:32;7.40;99.90
54518;DHT22;40423;53.176;6.002;2023-04-30T05:10:58;7.40;99.90
54518;DHT22;40423;53.176;6.002;2023-04-30T05:13:23;7.40;99.90
54518;DHT22;40423;53.176;6.002;2023-04-30T05:15:51;7.50;99.90
54518;DHT22;40423;53.176;6.002;2023-04-30T05:18:17;7.50;99.90
54518;DHT22;40423;53.176;6.002;2023-04-30T05:20:42;7.60;99.90
54518;DHT22;40423;53.176;6.002;2023-04-30T05:23:08;7.60;99.90
54518;DHT22;40423;53.176;6.002;2023-04-30T05:25:37;7.60;99.90
54518;DHT22;40423;53.176;6.002;2023-04-30T05:28:03;7.60;99.90
54518;DHT22;40423;53.176;6.002;2023-04-30T05:30:29;7.70;99.90
54518;DHT22;40423;53.176;6.002;2023-04-30T05:32:56;7.70;99.90
54518;DHT22;40423;53.176;6.002;2023-04-30T05:35:21;7.70;99.90
54518;DHT22;40423;53.176;6.002;2023-04-30T05:37:50;7.70;99.90
54518;DHT22;40423;53.176;6.002;2023-04-30T05:40:16;7.80;99.90
54518;DHT22;40423;53.176;6.002;2023-04-30T05:42:42;7.80;99.90
54518;DHT22;40423;53.176;6.002;2023-04-30T05:45:12;7.90;99.90
54518;DHT22;40423;53.176;6.002;2023-04-30T05:47:39;7.90;99.90
54518;DHT22;40423;53.176;6.002;2023-04-30T05:50:06;8.00;99.90
54518;DHT22;40423;53.176;6.002;2023-04-30T05:52:32;8.00;99.90
54518;DHT22;40423;53.176;6.002;2023-04-30T05:54:57;8.00;99.90
54518;DHT22;40423;53.176;6.002;2023-04-30T05:57:23;7.90;99.90
54518;DHT22;40423;53.176;6.002;2023-04-30T05:59:49;8.00;99.90
54518;DHT22;40423;53.176;6.002;2023-04-30T06:02:19;8.00;99.90
54518;DHT22;40423;53.176;6.002;2023-04-30T06:04:44;8.10;99.90
54518;DHT22;40423;53.176;6.002;2023-04-30T06:07:10;8.10;99.90
54518;DHT22;40423;53.176;6.002;2023-04-30T06:09:36;8.20;99.90
54518;DHT22;40423;53.176;6.002;2023-04-30T06:12:01;8.30;99.90
54518;DHT22;40423;53.176;6.002;2023-04-30T06:14:28;8.30;99.90
54518;DHT22;40423;53.176;6.002;2023-04-30T06:16:54;8.40;99.90
54518;DHT22;40423;53.176;6.002;2023-04-30T06:19:20;8.50;99.90
54518;DHT22;40423;53.176;6.002;2023-04-30T06:21:45;8.50;99.90
54518;DHT22;40423;53.176;6.002;2023-04-30T06:24:11;8.60;99.90
54518;DHT22;40423;53.176;6.002;2023-04-30T06:26:37;8.60;99.90
54518;DHT22;40423;53.176;6.002;2023-04-30T06:29:02;8.60;99.90
54518;DHT22;40423;53.176;6.002;2023-04-30T06:31:29;8.70;99.90
54518;DHT22;40423;53.176;6.002;2023-04-30T06:33:55;8.80;99.90
54518;DHT22;40423;53.176;6.002;2023-04-30T06:36:21;8.80;99.90
54518;DHT22;40423;53.176;6.002;2023-04-30T06:38:46;8.80;99.90
54518;DHT22;40423;53.176;6.002;2023-04-30T06:41:13;8.80;99.90
54518;DHT22;40423;53.176;6.002;2023-04-30T06:43:39;8.80;99.90
54518;DHT22;40423;53.176;6.002;2023-04-30T06:46:04;8.90;99.90
54518;DHT22;40423;53.176;6.002;2023-04-30T06:48:31;8.90;99.90
54518;DHT22;40423;53.176;6.002;2023-04-30T06:50:57;8.90;99.90
54518;DHT22;40423;53.176;6.002;2023-04-30T06:53:23;8.90;99.90
54518;DHT22;40423;53.176;6.002;2023-04-30T06:55:49;9.00;99.90
54518;DHT22;40423;53.176;6.002;2023-04-30T06:58:15;9.10;99.90
54518;DHT22;40423;53.176;6.002;2023-04-30T07:00:43;9.10;99.90
54518;DHT22;40423;53.176;6.002;2023-04-30T07:03:08;9.20;99.90
54518;DHT22;40423;53.176;6.002;2023-04-30T07:05:34;9.30;99.90
54518;DHT22;40423;53.176;6.002;2023-04-30T07:08:01;9.30;99.90
54518;DHT22;40423;53.176;6.002;2023-04-30T07:10:28;9.40;99.90
54518;DHT22;40423;53.176;6.002;2023-04-30T07:12:54;9.40;99.90
54518;DHT22;40423;53.176;6.002;2023-04-30T07:15:21;9.40;99.90
54518;DHT22;40423;53.176;6.002;2023-04-30T07:17:46;9.50;99.90
54518;DHT22;40423;53.176;6.002;2023-04-30T07:20:12;9.50;99.90
54518;DHT22;40423;53.176;6.002;2023-04-30T07:22:41;9.50;99.90
54518;DHT22;40423;53.176;6.002;2023-04-30T07:25:09;9.60;99.90
54518;DHT22;40423;53.176;6.002;2023-04-30T07:27:35;9.80;99.90
54518;DHT22;40423;53.176;6.002;2023-04-30T07:30:01;10.00;99.90
54518;DHT22;40423;53.176;6.002;2023-04-30T07:32:27;10.20;99.90
54518;DHT22;40423;53.176;6.002;2023-04-30T07:34:53;10.40;99.90
54518;DHT22;40423;53.176;6.002;2023-04-30T07:37:19;10.60;99.90
54518;DHT22;40423;53.176;6.002;2023-04-30T07:39:44;10.80;99.90
54518;DHT22;40423;53.176;6.002;2023-04-30T07:42:10;11.00;99.90
54518;DHT22;40423;53.176;6.002;2023-04-30T07:44:36;11.20;99.90
54518;DHT22;40423;53.176;6.002;2023-04-30T07:47:02;11.20;99.90
54518;DHT22;40423;53.176;6.002;2023-04-30T07:49:28;11.10;99.90
54518;DHT22;40423;53.176;6.002;2023-04-30T07:51:53;11.10;99.90
54518;DHT22;40423;53.176;6.002;2023-04-30T07:54:19;11.20;99.90
54518;DHT22;40423;53.176;6.002;2023-04-30T07:56:45;11.20;99.90
54518;DHT22;40423;53.176;6.002;2023-04-30T07:59:13;11.30;99.90
54518;DHT22;40423;53.176;6.002;2023-04-30T08:01:39;11.40;99.90
54518;DHT22;40423;53.176;6.002;2023-04-30T08:04:05;11.50;99.90
54518;DHT22;40423;53.176;6.002;2023-04-30T08:06:32;11.60;99.90
54518;DHT22;40423;53.176;6.002;2023-04-30T08:09:00;11.60;99.90
54518;DHT22;40423;53.176;6.002;2023-04-30T08:11:26;11.50;99.90
54518;DHT22;40423;53.176;6.002;2023-04-30T08:13:52;11.50;99.90
54518;DHT22;40423;53.176;6.002;2023-04-30T08:16:18;11.70;99.90
54518;DHT22;40423;53.176;6.002;2023-04-30T08:18:44;11.80;99.90
54518;DHT22;40423;53.176;6.002;2023-04-30T08:21:12;11.90;99.90
54518;DHT22;40423;53.176;6.002;2023-04-30T08:23:38;11.90;99.90
54518;DHT22;40423;53.176;6.002;2023-04-30T08:26:04;11.90;99.90
54518;DHT22;40423;53.176;6.002;2023-04-30T08:28:29;12.00;99.90
54518;DHT22;40423;53.176;6.002;2023-04-30T08:30:56;12.10;99.90
54518;DHT22;40423;53.176;6.002;2023-04-30T08:33:21;12.20;99.90
54518;DHT22;40423;53.176;6.002;2023-04-30T08:35:50;12.00;99.90
54518;DHT22;40423;53.176;6.002;2023-04-30T08:38:16;12.00;99.90
54518;DHT22;40423;53.176;6.002;2023-04-30T08:40:45;12.00;99.90
54518;DHT22;40423;53.176;6.002;2023-04-30T08:43:13;11.90;99.90
54518;DHT22;40423;53.176;6.002;2023-04-30T08:45:40;11.90;99.90
54518;DHT22;40423;53.176;6.002;2023-04-30T08:48:09;12.00;99.90
54518;DHT22;40423;53.176;6.002;2023-04-30T08:50:36;12.10;99.90
54518;DHT22;40423;53.176;6.002;2023-04-30T08:53:02;12.20;99.90
54518;DHT22;40423;53.176;6.002;2023-04-30T08:55:29;12.20;99.90
54518;DHT22;40423;53.176;6.002;2023-04-30T08:57:55;12.20;99.90
54518;DHT22;40423;53.176;6.002;2023-04-30T09:00:20;12.20;99.90
54518;DHT22;40423;53.176;6.002;2023-04-30T09:02:47;12.20;99.90
54518;DHT22;40423;53.176;6.002;2023-04-30T09:05:14;12.30;99.90
54518;DHT22;40423;53.176;6.002;2023-04-30T09:07:44;12.20;99.90
54518;DHT22;40423;53.176;6.002;2023-04-30T09:10:20;12.20;99.90
54518;DHT22;40423;53.176;6.002;2023-04-30T09:13:05;12.30;99.90
54518;DHT22;40423;53.176;6.002;2023-04-30T09:15:31;12.40;99.90
54518;DHT22;40423;53.176;6.002;2023-04-30T09:20:37;12.50;99.90
54518;DHT22;40423;53.176;6.002;2023-04-30T09:23:17;12.50;99.90
54518;DHT22;40423;53.176;6.002;2023-04-30T09:25:43;12.60;99.90
54518;DHT22;40423;53.176;6.002;2023-04-30T09:28:10;12.60;99.90
54518;DHT22;40423;53.176;6.002;2023-04-30T09:30:36;12.60;99.90
54518;DHT22;40423;53.176;6.002;2023-04-30T09:33:02;12.60;99.90
54518;DHT22;40423;53.176;6.002;2023-04-30T09:35:30;12.70;99.90
54518;DHT22;40423;53.176;6.002;2023-04-30T09:38:01;12.80;99.90
54518;DHT22;40423;53.176;6.002;2023-04-30T09:40:38;12.90;99.90
54518;DHT22;40423;53.176;6.002;2023-04-30T09:43:05;13.10;99.90
54518;DHT22;40423;53.176;6.002;2023-04-30T09:45:48;13.20;99.90
54518;DHT22;40423;53.176;6.002;2023-04-30T09:48:22;13.20;99.90
54518;DHT22;40423;53.176;6.002;2023-04-30T09:50:49;13.30;99.90
54518;DHT22;40423;53.176;6.002;2023-04-30T09:53:17;13.20;99.90
54518;DHT22;40423;53.176;6.002;2023-04-30T09:55:46;13.30;99.90
54518;DHT22;40423;53.176;6.002;2023-04-30T09:58:13;13.30;99.90
54518;DHT22;40423;53.176;6.002;2023-04-30T10:00:46;13.40;99.90
54518;DHT22;40423;53.176;6.002;2023-04-30T10:03:15;13.50;99.90
54518;DHT22;40423;53.176;6.002;2023-04-30T10:05:43;13.60;99.90
54518;DHT22;40423;53.176;6.002;2023-04-30T10:11:05;14.10;99.90
54518;DHT22;40423;53.176;6.002;2023-04-30T10:13:37;14.30;99.90
54518;DHT22;40423;53.176;6.002;2023-04-30T10:16:23;14.40;99.90
54518;DHT22;40423;53.176;6.002;2023-04-30T10:18:53;14.40;99.90
54518;DHT22;40423;53.176;6.002;2023-04-30T10:21:23;14.40;99.90
54518;DHT22;40423;53.176;6.002;2023-04-30T10:23:50;14.50;99.90
54518;DHT22;40423;53.176;6.002;2023-04-30T10:26:17;14.60;99.90
54518;DHT22;40423;53.176;6.002;2023-04-30T10:28:43;14.80;99.90
54518;DHT22;40423;53.176;6.002;2023-04-30T10:31:11;14.90;99.90
54518;DHT22;40423;53.176;6.002;2023-04-30T10:39:00;15.20;99.90
54518;DHT22;40423;53.176;6.002;2023-04-30T10:41:26;15.30;99.90
54518;DHT22;40423;53.176;6.002;2023-04-30T10:43:59;15.40;99.90
54518;DHT22;40423;53.176;6.002;2023-04-30T10:46:25;15.50;99.90
54518;DHT22;40423;53.176;6.002;2023-04-30T10:48:53;15.50;99.90
54518;DHT22;40423;53.176;6.002;2023-04-30T10:51:20;15.70;99.90
54518;DHT22;40423;53.176;6.002;2023-04-30T10:53:50;15.70;99.90
54518;DHT22;40423;53.176;6.002;2023-04-30T10:56:31;15.80;99.90
54518;DHT22;40423;53.176;6.002;2023-04-30T10:59:01;16.00;99.90
54518;DHT22;40423;53.176;6.002;2023-04-30T11:01:27;16.20;99.90
54518;DHT22;40423;53.176;6.002;2023-04-30T11:09:36;16.20;99.90
54518;DHT22;40423;53.176;6.002;2023-04-30T11:12:03;16.20;99.90
54518;DHT22;40423;53.176;6.002;2023-04-30T11:14:31;16.40;99.90
54518;DHT22;40423;53.176;6.002;2023-04-30T11:16:58;16.60;99.90
54518;DHT22;40423;53.176;6.002;2023-04-30T11:19:27;16.60;99.90
54518;DHT22;40423;53.176;6.002;2023-04-30T11:24:48;16.60;99.90
54518;DHT22;40423;53.176;6.002;2023-04-30T11:27:22;16.70;99.60
54518;DHT22;40423;53.176;6.002;2023-04-30T11:29:51;16.70;99.90
54518;DHT22;40423;53.176;6.002;2023-04-30T11:32:18;16.80;99.90
54518;DHT22;40423;53.176;6.002;2023-04-30T11:34:44;17.00;99.60
54518;DHT22;40423;53.176;6.002;2023-04-30T11:37:22;17.00;98.70
54518;DHT22;40423;53.176;6.002;2023-04-30T11:39:49;16.90;98.70
54518;DHT22;40423;53.176;6.002;2023-04-30T11:42:18;16.90;99.00
54518;DHT22;40423;53.176;6.002;2023-04-30T11:44:44;16.90;99.30
54518;DHT22;40423;53.176;6.002;2023-04-30T11:47:12;17.10;99.20
54518;DHT22;40423;53.176;6.002;2023-04-30T11:49:38;17.30;98.80
54518;DHT22;40423;53.176;6.002;2023-04-30T11:52:04;17.40;98.70
54518;DHT22;40423;53.176;6.002;2023-04-30T11:54:31;17.50;98.60
54518;DHT22;40423;53.176;6.002;2023-04-30T11:56:57;17.60;99.00
54518;DHT22;40423;53.176;6.002;2023-04-30T11:59:29;17.80;98.50
54518;DHT22;40423;53.176;6.002;2023-04-30T12:01:54;17.90;98.30
54518;DHT22;40423;53.176;6.002;2023-04-30T12:04:21;18.00;98.10
54518;DHT22;40423;53.176;6.002;2023-04-30T12:06:47;18.00;98.60
54518;DHT22;40423;53.176;6.002;2023-04-30T12:09:13;18.10;97.80
54518;DHT22;40423;53.176;6.002;2023-04-30T12:11:39;18.10;97.80
54518;DHT22;40423;53.176;6.002;2023-04-30T12:14:11;18.10;98.00
54518;DHT22;40423;53.176;6.002;2023-04-30T12:16:50;18.20;98.30
54518;DHT22;40423;53.176;6.002;2023-04-30T12:19:20;18.40;98.30
54518;DHT22;40423;53.176;6.002;2023-04-30T12:21:48;18.50;97.70
54518;DHT22;40423;53.176;6.002;2023-04-30T12:24:18;18.60;97.20
54518;DHT22;40423;53.176;6.002;2023-04-30T12:26:44;18.60;97.30
54518;DHT22;40423;53.176;6.002;2023-04-30T12:29:15;18.90;97.90
54518;DHT22;40423;53.176;6.002;2023-04-30T12:31:42;19.10;97.50
54518;DHT22;40423;53.176;6.002;2023-04-30T12:34:09;19.10;96.50
54518;DHT22;40423;53.176;6.002;2023-04-30T12:36:36;19.20;96.80
54518;DHT22;40423;53.176;6.002;2023-04-30T12:39:11;19.20;96.70
54518;DHT22;40423;53.176;6.002;2023-04-30T12:41:42;19.30;96.80
54518;DHT22;40423;53.176;6.002;2023-04-30T12:46:40;19.40;96.00
54518;DHT22;40423;53.176;6.002;2023-04-30T12:49:05;19.50;95.90
54518;DHT22;40423;53.176;6.002;2023-04-30T12:51:41;19.40;95.80
54518;DHT22;40423;53.176;6.002;2023-04-30T12:54:07;19.50;95.50
54518;DHT22;40423;53.176;6.002;2023-04-30T12:56:33;19.60;96.10
54518;DHT22;40423;53.176;6.002;2023-04-30T12:59:02;19.60;95.60
54518;DHT22;40423;53.176;6.002;2023-04-30T13:01:28;19.20;95.30
54518;DHT22;40423;53.176;6.002;2023-04-30T13:03:54;18.80;95.60
54518;DHT22;40423;53.176;6.002;2023-04-30T13:06:22;18.80;95.80
54518;DHT22;40423;53.176;6.002;2023-04-30T13:08:48;18.80;95.60
54518;DHT22;40423;53.176;6.002;2023-04-30T13:11:17;18.70;95.70
54518;DHT22;40423;53.176;6.002;2023-04-30T13:13:46;18.80;95.50
54518;DHT22;40423;53.176;6.002;2023-04-30T13:16:12;18.70;95.40
54518;DHT22;40423;53.176;6.002;2023-04-30T13:18:37;18.80;95.60
54518;DHT22;40423;53.176;6.002;2023-04-30T13:21:04;19.10;95.50
54518;DHT22;40423;53.176;6.002;2023-04-30T13:23:30;19.20;94.60
54518;DHT22;40423;53.176;6.002;2023-04-30T13:25:55;19.20;94.70
54518;DHT22;40423;53.176;6.002;2023-04-30T13:28:21;19.30;94.60
54518;DHT22;40423;53.176;6.002;2023-04-30T13:30:47;19.50;94.30
54518;DHT22;40423;53.176;6.002;2023-04-30T13:33:13;19.70;94.80
54518;DHT22;40423;53.176;6.002;2023-04-30T13:35:39;20.00;94.60
54518;DHT22;40423;53.176;6.002;2023-04-30T13:38:05;20.10;94.50
54518;DHT22;40423;53.176;6.002;2023-04-30T13:40:31;20.20;94.00
54518;DHT22;40423;53.176;6.002;2023-04-30T13:42:56;20.30;94.10
54518;DHT22;40423;53.176;6.002;2023-04-30T13:45:22;20.20;93.50
54518;DHT22;40423;53.176;6.002;2023-04-30T13:47:48;20.30;93.20
54518;DHT22;40423;53.176;6.002;2023-04-30T13:50:13;20.30;93.00
54518;DHT22;40423;53.176;6.002;2023-04-30T13:52:39;20.30;92.90
54518;DHT22;40423;53.176;6.002;2023-04-30T13:55:06;20.30;92.50
54518;DHT22;40423;53.176;6.002;2023-04-30T13:57:34;20.30;92.50
54518;DHT22;40423;53.176;6.002;2023-04-30T14:00:00;20.20;92.60
54518;DHT22;40423;53.176;6.002;2023-04-30T14:02:27;20.20;92.40
54518;DHT22;40423;53.176;6.002;2023-04-30T14:04:53;20.30;92.50
54518;DHT22;40423;53.176;6.002;2023-04-30T14:07:20;20.40;92.30
54518;DHT22;40423;53.176;6.002;2023-04-30T14:09:46;20.50;91.30
54518;DHT22;40423;53.176;6.002;2023-04-30T14:12:11;20.50;91.50
54518;DHT22;40423;53.176;6.002;2023-04-30T14:14:37;20.20;91.80
54518;DHT22;40423;53.176;6.002;2023-04-30T14:17:03;20.00;90.50
54518;DHT22;40423;53.176;6.002;2023-04-30T14:19:30;19.80;91.40
54518;DHT22;40423;53.176;6.002;2023-04-30T14:21:55;19.70;91.70
54518;DHT22;40423;53.176;6.002;2023-04-30T14:24:21;19.70;91.60
54518;DHT22;40423;53.176;6.002;2023-04-30T14:26:47;19.30;91.50
54518;DHT22;40423;53.176;6.002;2023-04-30T14:29:13;19.30;91.90
54518;DHT22;40423;53.176;6.002;2023-04-30T14:31:39;19.10;91.90
54518;DHT22;40423;53.176;6.002;2023-04-30T14:34:04;18.90;92.40
54518;DHT22;40423;53.176;6.002;2023-04-30T14:36:30;19.00;92.60
54518;DHT22;40423;53.176;6.002;2023-04-30T14:38:56;19.10;92.20
54518;DHT22;40423;53.176;6.002;2023-04-30T14:41:24;19.20;92.10
54518;DHT22;40423;53.176;6.002;2023-04-30T14:43:51;19.30;91.50
54518;DHT22;40423;53.176;6.002;2023-04-30T14:46:17;19.30;91.70
54518;DHT22;40423;53.176;6.002;2023-04-30T14:48:43;19.10;91.70
54518;DHT22;40423;53.176;6.002;2023-04-30T14:51:12;19.00;92.10
54518;DHT22;40423;53.176;6.002;2023-04-30T14:53:38;18.70;92.00
54518;DHT22;40423;53.176;6.002;2023-04-30T14:56:04;18.40;92.10
54518;DHT22;40423;53.176;6.002;2023-04-30T14:58:32;18.30;92.60
54518;DHT22;40423;53.176;6.002;2023-04-30T15:01:00;18.30;92.90
54518;DHT22;40423;53.176;6.002;2023-04-30T15:03:26;18.30;93.10
54518;DHT22;40423;53.176;6.002;2023-04-30T15:05:51;18.40;92.60
54518;DHT22;40423;53.176;6.002;2023-04-30T15:08:17;18.30;92.40
54518;DHT22;40423;53.176;6.002;2023-04-30T15:10:43;18.20;92.00
54518;DHT22;40423;53.176;6.002;2023-04-30T15:13:09;18.10;91.90
54518;DHT22;40423;53.176;6.002;2023-04-30T15:15:35;17.90;91.70
54518;DHT22;40423;53.176;6.002;2023-04-30T15:18:02;17.80;91.80
54518;DHT22;40423;53.176;6.002;2023-04-30T15:20:30;17.70;92.10
54518;DHT22;40423;53.176;6.002;2023-04-30T15:22:56;17.70;92.50
54518;DHT22;40423;53.176;6.002;2023-04-30T15:25:21;17.60;92.50
54518;DHT22;40423;53.176;6.002;2023-04-30T15:27:49;17.60;92.40
54518;DHT22;40423;53.176;6.002;2023-04-30T15:30:18;17.50;92.20
54518;DHT22;40423;53.176;6.002;2023-04-30T15:32:44;17.40;92.50
54518;DHT22;40423;53.176;6.002;2023-04-30T15:35:10;17.30;92.70
54518;DHT22;40423;53.176;6.002;2023-04-30T15:37:36;17.20;92.30
54518;DHT22;40423;53.176;6.002;2023-04-30T15:40:02;17.20;92.90
54518;DHT22;40423;53.176;6.002;2023-04-30T15:42:32;17.10;92.90
54518;DHT22;40423;53.176;6.002;2023-04-30T15:44:58;17.00;93.20
54518;DHT22;40423;53.176;6.002;2023-04-30T15:47:24;17.00;93.40
54518;DHT22;40423;53.176;6.002;2023-04-30T15:49:50;17.00;93.50
54518;DHT22;40423;53.176;6.002;2023-04-30T15:52:16;17.00;93.30
54518;DHT22;40423;53.176;6.002;2023-04-30T15:54:45;17.00;93.00
54518;DHT22;40423;53.176;6.002;2023-04-30T15:57:12;16.90;93.50
54518;DHT22;40423;53.176;6.002;2023-04-30T15:59:37;16.90;93.50
54518;DHT22;40423;53.176;6.002;2023-04-30T16:02:03;16.90;93.70
54518;DHT22;40423;53.176;6.002;2023-04-30T16:04:29;16.90;93.50
54518;DHT22;40423;53.176;6.002;2023-04-30T16:06:55;16.90;93.20
54518;DHT22;40423;53.176;6.002;2023-04-30T16:09:24;16.90;93.20
54518;DHT22;40423;53.176;6.002;2023-04-30T16:11:52;16.70;93.30
54518;DHT22;40423;53.176;6.002;2023-04-30T16:14:18;16.60;93.60
54518;DHT22;40423;53.176;6.002;2023-04-30T16:16:44;16.60;93.50
54518;DHT22;40423;53.176;6.002;2023-04-30T16:19:10;16.60;93.80
54518;DHT22;40423;53.176;6.002;2023-04-30T16:21:37;16.50;93.60